Time;durP1;ratioP1;P1;durP2;ratioP2;P2;SDS_P1;SDS_P2;PMS_P1;PMS_P2;Temp;Humidity;BMP_temperature;BMP_pressure;BME280_temperature;BME280_humidity;BME280_pressure;Samples;Min_cycle;Max_cycle;Signal;HPM_P1;HPM_P2
2023/06/17 00:00:28;;;;;;;7.45;6.45;;;23.90;51.80;;;;;;5060350;28;20040;-72
2023/06/17 00:02:54;;;;;;;9.07;6.90;;;23.80;51.70;;;;;;5060034;28;20119;-73
2023/06/17 00:05:20;;;;;;;7.68;6.88;;;23.90;51.70;;;;;;5057621;28;20057;-73
2023/06/17 00:07:46;;;;;;;8.88;6.78;;;23.80;51.90;;;;;;5061118;28;20058;-74
2023/06/17 00:10:12;;;;;;;9.30;6.97;;;23.80;51.90;;;;;;5060629;28;20573;-73
2023/06/17 00:12:39;;;;;;;7.30;6.60;;;23.80;52.10;;;;;;5059388;28;20033;-73
2023/06/17 00:15:06;;;;;;;8.10;6.70;;;23.80;51.90;;;;;;5059268;28;20060;-73
2023/06/17 00:17:32;;;;;;;7.20;6.50;;;23.70;51.90;;;;;;5061574;28;20021;-74
2023/06/17 00:20:01;;;;;;;7.85;6.82;;;23.70;52.00;;;;;;5058192;28;20052;-73
2023/06/17 00:22:29;;;;;;;7.05;6.35;;;23.70;51.90;;;;;;5059766;28;20040;-73
2023/06/17 00:24:58;;;;;;;8.60;6.85;;;23.70;51.80;;;;;;5058930;28;20032;-73
2023/06/17 00:27:24;;;;;;;7.63;6.82;;;23.70;52.00;;;;;;5062408;28;20539;-73
2023/06/17 00:29:50;;;;;;;7.72;6.93;;;23.70;52.10;;;;;;5062681;28;20083;-74
2023/06/17 00:32:16;;;;;;;7.93;7.13;;;23.60;52.30;;;;;;5075673;28;20024;-74
2023/06/17 00:34:42;;;;;;;8.85;7.30;;;23.60;52.40;;;;;;5058608;28;20364;-73
2023/06/17 00:37:07;;;;;;;8.82;7.03;;;23.60;52.50;;;;;;5060471;28;20036;-74
2023/06/17 00:39:34;;;;;;;10.43;7.35;;;23.60;52.60;;;;;;5060666;28;20037;-74
2023/06/17 00:42:00;;;;;;;8.75;7.30;;;23.50;52.60;;;;;;5060343;28;20025;-74
2023/06/17 00:44:26;;;;;;;16.77;7.38;;;23.50;52.80;;;;;;5044991;28;20031;-72
2023/06/17 00:46:55;;;;;;;9.18;6.97;;;23.50;52.90;;;;;;5062329;28;20033;-74
2023/06/17 00:49:33;;;;;;;8.27;7.45;;;23.40;52.80;;;;;;5059244;28;20040;-73
2023/06/17 00:52:09;;;;;;;9.02;6.80;;;23.40;52.90;;;;;;5061346;28;20033;-73
2023/06/17 00:54:41;;;;;;;7.88;7.07;;;23.40;53.10;;;;;;5063228;28;20039;-74
2023/06/17 00:57:13;;;;;;;9.20;7.68;;;23.40;53.10;;;;;;5077263;28;20056;-73
2023/06/17 00:59:41;;;;;;;10.80;7.32;;;23.30;53.30;;;;;;5059939;28;20037;-74
2023/06/17 01:02:09;;;;;;;8.82;7.35;;;23.30;53.10;;;;;;5079812;28;20071;-74
2023/06/17 01:04:37;;;;;;;8.23;7.43;;;23.30;53.30;;;;;;5063279;28;20035;-73
2023/06/17 01:07:17;;;;;;;10.50;7.60;;;23.30;53.30;;;;;;5078439;28;20436;-73
2023/06/17 01:09:48;;;;;;;8.15;7.28;;;23.30;53.30;;;;;;5061363;28;20028;-73
2023/06/17 01:12:17;;;;;;;9.13;7.93;;;23.30;53.30;;;;;;5064794;28;20044;-73
2023/06/17 01:14:45;;;;;;;9.20;7.53;;;23.30;53.40;;;;;;5063665;28;20036;-73
2023/06/17 01:17:13;;;;;;;8.73;7.07;;;23.30;53.40;;;;;;5058542;28;20123;-74
2023/06/17 01:19:40;;;;;;;8.40;7.43;;;23.30;53.30;;;;;;5063467;28;20040;-72
2023/06/17 01:22:10;;;;;;;8.65;7.38;;;23.30;53.40;;;;;;5078513;28;20032;-74
2023/06/17 01:24:37;;;;;;;9.10;7.57;;;23.20;53.30;;;;;;5066131;28;20399;-74
2023/06/17 01:27:03;;;;;;;8.40;7.25;;;23.20;53.20;;;;;;5064063;28;20036;-74
2023/06/17 01:29:30;;;;;;;8.43;7.50;;;23.30;53.20;;;;;;5065323;28;20036;-74
2023/06/17 01:31:57;;;;;;;9.35;8.00;;;23.30;53.40;;;;;;5059596;28;20040;-73
2023/06/17 01:34:37;;;;;;;8.93;7.35;;;23.30;53.80;;;;;;5061999;28;20032;-74
2023/06/17 01:37:09;;;;;;;9.20;7.60;;;23.40;53.50;;;;;;5061376;28;20029;-72
2023/06/17 01:39:37;;;;;;;11.10;8.00;;;23.40;53.60;;;;;;5060673;28;20025;-72
2023/06/17 01:42:09;;;;;;;9.25;7.47;;;23.40;53.40;;;;;;5063062;28;20032;-72
2023/06/17 01:44:38;;;;;;;8.15;7.35;;;23.40;53.40;;;;;;5061882;28;20097;-73
2023/06/17 01:47:04;;;;;;;10.73;7.85;;;23.40;53.60;;;;;;5061178;28;20064;-74
2023/06/17 01:49:30;;;;;;;9.35;7.10;;;23.40;53.60;;;;;;5078190;28;20055;-74
2023/06/17 01:51:56;;;;;;;8.15;7.25;;;23.40;53.40;;;;;;5076141;28;20443;-73
2023/06/17 01:54:22;;;;;;;8.48;7.53;;;23.40;54.20;;;;;;5064649;28;20033;-73
2023/06/17 01:56:49;;;;;;;7.95;6.97;;;23.40;53.30;;;;;;5065622;28;20043;-73
2023/06/17 01:59:15;;;;;;;8.55;6.90;;;23.40;53.50;;;;;;5061339;28;20068;-73
2023/06/17 02:01:41;;;;;;;8.10;7.07;;;23.40;53.60;;;;;;5078259;28;20037;-74
2023/06/17 02:04:07;;;;;;;10.00;7.03;;;23.40;53.30;;;;;;5065783;28;20509;-74
2023/06/17 02:06:33;;;;;;;8.63;7.43;;;23.40;53.20;;;;;;5064631;28;20479;-73
2023/06/17 02:08:59;;;;;;;8.48;7.57;;;23.40;53.40;;;;;;5061409;28;20499;-73
2023/06/17 02:11:25;;;;;;;7.65;6.85;;;23.40;52.80;;;;;;5062592;28;20049;-74
2023/06/17 02:13:51;;;;;;;7.85;6.85;;;23.50;52.70;;;;;;5061335;28;20381;-72
2023/06/17 02:16:17;;;;;;;8.90;6.50;;;23.50;52.40;;;;;;5064195;28;20039;-72
2023/06/17 02:18:43;;;;;;;7.25;6.53;;;23.60;52.30;;;;;;5062103;28;20036;-72
2023/06/17 02:21:09;;;;;;;8.10;6.90;;;23.70;52.10;;;;;;5060669;28;20419;-73
2023/06/17 02:23:35;;;;;;;7.75;6.80;;;23.80;52.10;;;;;;5061365;28;20028;-73
2023/06/17 02:26:02;;;;;;;10.20;7.00;;;23.80;52.00;;;;;;5060914;28;20508;-73
2023/06/17 02:28:28;;;;;;;8.43;6.70;;;23.90;52.20;;;;;;5062971;28;20462;-73
2023/06/17 02:30:54;;;;;;;10.13;7.05;;;24.00;52.00;;;;;;5064123;28;20987;-73
2023/06/17 02:33:22;;;;;;;8.07;6.90;;;24.10;52.60;;;;;;5075054;28;20033;-73
2023/06/17 02:35:48;;;;;;;8.80;6.68;;;24.10;51.70;;;;;;5059719;28;20050;-73
2023/06/17 02:38:15;;;;;;;8.93;7.15;;;24.20;51.80;;;;;;5063834;28;20048;-74
2023/06/17 02:40:41;;;;;;;10.63;7.00;;;24.20;51.80;;;;;;5058334;28;20041;-72
2023/06/17 02:43:08;;;;;;;7.13;6.40;;;24.30;52.30;;;;;;5076162;28;20138;-72
2023/06/17 02:45:35;;;;;;;9.30;6.97;;;24.40;52.60;;;;;;5064287;28;20040;-72
2023/06/17 02:48:02;;;;;;;9.20;6.75;;;24.40;52.90;;;;;;5077158;28;20029;-73
2023/06/17 02:50:28;;;;;;;9.07;6.97;;;24.50;52.70;;;;;;5062383;28;20119;-72
2023/06/17 02:52:57;;;;;;;8.05;7.05;;;24.60;52.30;;;;;;5059090;28;20056;-71
2023/06/17 02:55:27;;;;;;;9.73;7.15;;;24.60;52.00;;;;;;5076476;28;20162;-72
2023/06/17 02:57:54;;;;;;;8.23;6.88;;;24.70;52.00;;;;;;5064548;28;20499;-72
2023/06/17 03:00:21;;;;;;;8.50;6.80;;;24.80;52.20;;;;;;5063749;28;20090;-72
2023/06/17 03:02:48;;;;;;;7.90;6.38;;;24.90;51.70;;;;;;5076869;28;20511;-74
2023/06/17 03:05:14;;;;;;;9.13;6.63;;;25.00;51.70;;;;;;5059931;28;20174;-73
2023/06/17 03:07:40;;;;;;;7.18;6.47;;;25.00;51.50;;;;;;5062300;28;20431;-73
2023/06/17 03:10:08;;;;;;;9.68;6.53;;;25.10;51.50;;;;;;5062947;28;20036;-72
2023/06/17 03:12:41;;;;;;;8.77;6.72;;;25.10;51.30;;;;;;5063321;28;20294;-72
2023/06/17 03:15:08;;;;;;;10.80;6.68;;;25.10;51.50;;;;;;5075485;28;20504;-73
2023/06/17 03:17:37;;;;;;;7.50;6.50;;;25.20;51.60;;;;;;5064060;28;20043;-73
2023/06/17 03:20:06;;;;;;;7.25;6.40;;;25.20;51.30;;;;;;5059525;28;20540;-72
2023/06/17 03:22:33;;;;;;;6.85;6.07;;;25.30;51.10;;;;;;5060077;28;20037;-72
2023/06/17 03:24:59;;;;;;;7.15;5.65;;;25.40;50.80;;;;;;5060692;28;20047;-74
2023/06/17 03:27:27;;;;;;;6.45;5.85;;;25.40;50.50;;;;;;5075001;28;20037;-73
2023/06/17 03:29:54;;;;;;;8.75;5.75;;;25.50;50.30;;;;;;5061073;28;20125;-72
2023/06/17 03:32:19;;;;;;;6.68;5.93;;;25.60;50.20;;;;;;5060139;28;20024;-73
2023/06/17 03:34:46;;;;;;;6.65;6.05;;;25.70;50.00;;;;;;5063042;28;20044;-74
2023/06/17 03:37:13;;;;;;;7.65;6.20;;;25.80;49.90;;;;;;5059370;28;20032;-73
2023/06/17 03:39:42;;;;;;;6.72;5.70;;;25.80;49.70;;;;;;5057810;28;20063;-72
2023/06/17 03:42:08;;;;;;;6.55;5.93;;;25.90;49.50;;;;;;5075117;28;20590;-73
2023/06/17 03:44:34;;;;;;;6.65;5.78;;;26.00;49.40;;;;;;5063454;28;21262;-72
2023/06/17 03:47:00;;;;;;;7.00;5.30;;;26.10;49.30;;;;;;5063165;28;20407;-73
2023/06/17 03:49:27;;;;;;;6.13;5.60;;;26.10;49.10;;;;;;5061325;28;20040;-73
2023/06/17 03:51:53;;;;;;;7.30;5.65;;;26.20;48.90;;;;;;5062960;28;20416;-72
2023/06/17 03:54:19;;;;;;;5.78;5.20;;;26.30;48.80;;;;;;5059720;28;20115;-73
2023/06/17 03:56:45;;;;;;;5.88;5.28;;;26.40;48.70;;;;;;5075242;28;20068;-73
2023/06/17 03:59:11;;;;;;;5.95;5.32;;;26.40;48.50;;;;;;5058228;28;20083;-73
2023/06/17 04:01:38;;;;;;;6.00;5.40;;;26.50;48.40;;;;;;5045602;28;20132;-73
2023/06/17 04:04:04;;;;;;;5.90;5.40;;;26.60;48.30;;;;;;5056156;28;20388;-73
2023/06/17 04:06:30;;;;;;;6.45;5.65;;;26.60;48.10;;;;;;5061060;28;20048;-73
2023/06/17 04:08:56;;;;;;;5.95;5.40;;;26.70;48.00;;;;;;5062342;28;20525;-73
2023/06/17 04:11:22;;;;;;;6.10;5.38;;;26.80;48.00;;;;;;5063270;28;20144;-73
2023/06/17 04:13:48;;;;;;;6.07;5.47;;;26.80;47.80;;;;;;5074662;28;20072;-75
2023/06/17 04:16:15;;;;;;;5.47;4.97;;;26.90;47.80;;;;;;5063118;28;20071;-73
2023/06/17 04:18:41;;;;;;;6.97;5.18;;;27.00;47.60;;;;;;5059025;28;20029;-72
2023/06/17 04:21:07;;;;;;;6.70;5.30;;;27.00;47.50;;;;;;5055821;28;20040;-71
2023/06/17 04:23:33;;;;;;;5.53;4.90;;;27.10;47.50;;;;;;5062039;28;20028;-74
2023/06/17 04:26:00;;;;;;;5.57;5.05;;;27.20;47.50;;;;;;5061957;28;20045;-73
2023/06/17 04:28:32;;;;;;;5.70;5.20;;;27.20;47.30;;;;;;5055533;28;20410;-73
2023/06/17 04:31:00;;;;;;;5.47;4.97;;;27.30;47.30;;;;;;5058929;28;20036;-73
2023/06/17 04:33:30;;;;;;;6.03;5.32;;;27.30;47.20;;;;;;5073756;28;20478;-72
2023/06/17 04:35:58;;;;;;;5.57;5.07;;;27.40;47.10;;;;;;5061808;28;20045;-74
2023/06/17 04:38:24;;;;;;;5.20;4.70;;;27.50;47.10;;;;;;5063103;28;20122;-74
2023/06/17 04:40:53;;;;;;;5.90;5.30;;;27.50;47.00;;;;;;5073620;28;20060;-73
2023/06/17 04:43:22;;;;;;;6.80;5.63;;;27.50;46.90;;;;;;5058534;28;20056;-73
2023/06/17 04:45:49;;;;;;;5.40;4.90;;;27.50;46.80;;;;;;5061870;28;20135;-73
2023/06/17 04:48:15;;;;;;;5.15;4.75;;;27.60;46.80;;;;;;5058082;28;20045;-73
2023/06/17 04:50:43;;;;;;;5.53;4.90;;;27.60;46.80;;;;;;5073775;28;20143;-74
2023/06/17 04:53:10;;;;;;;6.10;4.95;;;27.70;46.70;;;;;;5055989;28;20039;-72
2023/06/17 04:55:37;;;;;;;7.28;5.00;;;27.70;46.70;;;;;;5058077;28;20059;-73
2023/06/17 04:58:05;;;;;;;5.70;5.20;;;27.80;46.70;;;;;;5073442;28;20029;-73
2023/06/17 05:00:44;;;;;;;6.32;4.88;;;27.80;46.60;;;;;;5062150;28;20059;-73
2023/06/17 05:03:14;;;;;;;5.85;5.28;;;27.90;46.70;;;;;;5061593;28;20051;-73
2023/06/17 05:05:40;;;;;;;5.45;4.95;;;27.90;46.60;;;;;;5073751;28;20032;-73
2023/06/17 05:08:06;;;;;;;4.65;4.25;;;27.90;46.50;;;;;;5072625;28;20119;-73
2023/06/17 05:10:33;;;;;;;7.03;4.75;;;28.00;46.50;;;;;;5061482;28;20135;-73
2023/06/17 05:12:59;;;;;;;5.60;5.10;;;28.00;46.50;;;;;;5059501;28;20104;-73
2023/06/17 05:15:27;;;;;;;5.35;4.50;;;28.10;46.50;;;;;;5061560;28;20504;-73
2023/06/17 05:17:54;;;;;;;5.72;5.10;;;28.10;46.50;;;;;;5061301;28;20037;-72
2023/06/17 05:20:20;;;;;;;6.38;5.18;;;28.10;46.40;;;;;;5056657;28;20036;-72
2023/06/17 05:22:46;;;;;;;5.38;4.90;;;28.20;46.40;;;;;;5062199;28;20039;-73
2023/06/17 05:25:13;;;;;;;5.65;5.10;;;28.20;46.30;;;;;;5061653;28;20048;-74
2023/06/17 05:27:39;;;;;;;5.07;4.55;;;28.30;46.30;;;;;;5062043;28;20581;-73
2023/06/17 05:30:07;;;;;;;6.43;4.80;;;28.30;46.30;;;;;;5073477;28;20032;-73
2023/06/17 05:32:34;;;;;;;5.32;4.82;;;28.30;46.30;;;;;;5062006;28;20821;-74
2023/06/17 05:35:00;;;;;;;5.72;5.13;;;28.30;46.20;;;;;;5059391;28;20105;-72
2023/06/17 05:37:26;;;;;;;5.40;4.90;;;28.40;46.30;;;;;;5060981;28;20029;-73
2023/06/17 05:39:52;;;;;;;5.47;4.85;;;28.40;46.20;;;;;;5059364;28;20115;-73
2023/06/17 05:42:19;;;;;;;5.80;5.25;;;28.40;46.10;;;;;;5047906;28;20522;-74
2023/06/17 05:44:45;;;;;;;4.88;4.47;;;28.50;46.20;;;;;;5076819;28;20032;-74
2023/06/17 05:47:11;;;;;;;5.18;4.68;;;28.50;46.20;;;;;;5065441;28;20047;-73
2023/06/17 05:49:39;;;;;;;5.95;4.80;;;28.50;46.20;;;;;;5065437;28;20037;-73
2023/06/17 05:52:06;;;;;;;5.30;4.80;;;28.50;46.20;;;;;;5058022;28;20440;-73
2023/06/17 05:54:32;;;;;;;5.20;4.80;;;28.50;46.00;;;;;;5064601;28;20033;-73
2023/06/17 05:56:58;;;;;;;5.35;4.82;;;28.60;46.10;;;;;;5064327;28;20105;-74
2023/06/17 05:59:28;;;;;;;5.93;4.97;;;28.60;46.10;;;;;;5077348;28;20044;-72
2023/06/17 06:01:54;;;;;;;5.72;5.00;;;28.60;46.00;;;;;;5064886;28;20036;-71
2023/06/17 06:04:20;;;;;;;5.38;4.88;;;28.60;46.10;;;;;;5076381;28;20182;-74
2023/06/17 06:06:46;;;;;;;6.35;5.35;;;28.60;46.00;;;;;;5061642;28;20124;-71
2023/06/17 06:09:12;;;;;;;5.60;5.10;;;28.70;46.00;;;;;;5078573;28;20079;-72
2023/06/17 06:11:38;;;;;;;5.45;4.88;;;28.70;46.00;;;;;;5064685;28;20154;-74
2023/06/17 06:14:04;;;;;;;6.90;5.35;;;28.70;45.90;;;;;;5076770;28;20580;-73
2023/06/17 06:16:31;;;;;;;5.32;4.60;;;28.80;46.00;;;;;;5064932;28;20036;-73
2023/06/17 06:18:57;;;;;;;5.97;4.50;;;28.70;45.90;;;;;;5062529;28;20044;-73
2023/06/17 06:21:23;;;;;;;6.20;5.15;;;28.80;45.90;;;;;;5064622;28;20065;-74
2023/06/17 06:23:49;;;;;;;5.15;4.75;;;28.80;46.40;;;;;;5075961;28;20475;-74
2023/06/17 06:26:16;;;;;;;5.03;4.32;;;28.80;45.80;;;;;;5061282;28;21149;-74
2023/06/17 06:28:42;;;;;;;5.03;4.50;;;28.90;45.80;;;;;;5075652;28;20503;-74
2023/06/17 06:31:09;;;;;;;5.22;4.80;;;28.90;45.70;;;;;;5063960;28;20533;-74
2023/06/17 06:33:35;;;;;;;5.88;4.68;;;28.90;45.70;;;;;;5063551;28;20795;-74
2023/06/17 06:36:04;;;;;;;6.15;4.97;;;28.90;46.30;;;;;;5060099;28;20024;-73
2023/06/17 06:38:32;;;;;;;5.47;4.97;;;28.90;45.60;;;;;;5064866;28;20495;-74
2023/06/17 06:40:58;;;;;;;6.25;4.78;;;28.90;45.60;;;;;;5057108;28;20153;-73
2023/06/17 06:43:26;;;;;;;5.22;4.70;;;28.90;45.60;;;;;;5063252;28;20385;-73
2023/06/17 06:45:58;;;;;;;4.90;4.40;;;28.90;45.60;;;;;;5076943;28;20041;-72
2023/06/17 06:48:25;;;;;;;5.78;4.88;;;28.90;45.50;;;;;;5060008;28;20396;-73
2023/06/17 06:50:51;;;;;;;5.53;5.03;;;28.90;45.60;;;;;;5064308;28;20074;-72
2023/06/17 06:53:21;;;;;;;5.15;4.75;;;29.00;45.60;;;;;;5058598;28;20063;-73
2023/06/17 06:55:47;;;;;;;5.72;5.22;;;28.90;45.50;;;;;;5063567;28;20036;-73
2023/06/17 06:58:13;;;;;;;5.60;5.10;;;29.00;45.50;;;;;;5063629;28;20028;-74
2023/06/17 07:00:39;;;;;;;5.45;4.95;;;29.00;45.50;;;;;;5060205;28;20032;-73
2023/06/17 07:03:07;;;;;;;5.13;4.70;;;29.00;45.40;;;;;;5055435;28;20028;-72
2023/06/17 07:05:33;;;;;;;5.03;4.57;;;29.00;45.40;;;;;;5060093;28;20039;-74
2023/06/17 07:08:02;;;;;;;5.22;4.80;;;29.00;45.30;;;;;;5064282;28;20513;-74
2023/06/17 07:10:28;;;;;;;5.00;4.60;;;29.00;45.30;;;;;;5063848;28;20289;-73
2023/06/17 07:12:56;;;;;;;7.65;4.85;;;29.00;45.30;;;;;;5062631;28;20039;-73
2023/06/17 07:15:22;;;;;;;5.63;4.28;;;28.90;45.30;;;;;;5076163;28;20039;-74
2023/06/17 07:17:49;;;;;;;5.22;4.72;;;28.90;45.20;;;;;;5077038;28;20036;-73
2023/06/17 07:20:16;;;;;;;5.00;4.60;;;28.90;45.20;;;;;;5062616;28;20496;-72
2023/06/17 07:22:43;;;;;;;5.50;5.00;;;28.90;45.20;;;;;;5063977;28;20044;-75
2023/06/17 07:25:11;;;;;;;6.18;5.05;;;28.90;45.20;;;;;;5063752;28;20411;-73
2023/06/17 07:27:37;;;;;;;5.20;4.70;;;28.90;45.20;;;;;;5057180;28;20523;-74
2023/06/17 07:30:04;;;;;;;4.68;4.28;;;28.90;45.20;;;;;;5059862;28;20028;-72
2023/06/17 07:32:31;;;;;;;5.03;4.63;;;28.90;45.20;;;;;;5060719;28;20452;-72
2023/06/17 07:34:57;;;;;;;5.15;4.68;;;28.90;45.20;;;;;;5062866;28;20116;-74
2023/06/17 07:37:23;;;;;;;6.10;5.00;;;28.90;45.20;;;;;;5057943;28;20501;-73
2023/06/17 07:39:50;;;;;;;5.45;4.95;;;28.90;45.10;;;;;;5076373;28;20032;-74
2023/06/17 07:42:16;;;;;;;5.03;4.53;;;28.90;45.10;;;;;;5058108;28;20037;-74
2023/06/17 07:44:44;;;;;;;6.18;5.10;;;28.90;45.10;;;;;;5059873;28;20024;-74
2023/06/17 07:47:10;;;;;;;5.20;4.70;;;28.90;45.00;;;;;;5058487;28;20067;-72
2023/06/17 07:49:36;;;;;;;5.30;4.63;;;28.90;44.90;;;;;;5059504;28;20474;-74
2023/06/17 07:52:03;;;;;;;5.53;4.60;;;28.80;44.90;;;;;;5058793;28;20147;-74
2023/06/17 07:54:30;;;;;;;4.90;4.47;;;28.80;44.80;;;;;;5061222;28;20137;-73
2023/06/17 07:56:56;;;;;;;5.55;5.05;;;28.90;44.70;;;;;;5059697;28;20056;-73
2023/06/17 07:59:22;;;;;;;6.55;4.70;;;28.90;44.50;;;;;;5059887;28;20029;-73
2023/06/17 08:01:48;;;;;;;5.20;4.70;;;28.90;44.30;;;;;;5059633;28;20081;-73
2023/06/17 08:04:14;;;;;;;5.00;4.60;;;28.90;44.00;;;;;;5061238;28;20036;-73
2023/06/17 08:06:40;;;;;;;5.43;4.90;;;28.90;43.90;;;;;;5059175;28;20396;-74
2023/06/17 08:09:08;;;;;;;5.07;4.55;;;28.90;43.70;;;;;;5059119;28;20040;-73
2023/06/17 08:11:34;;;;;;;4.85;4.45;;;28.80;43.70;;;;;;5058823;28;20820;-73
2023/06/17 08:14:00;;;;;;;5.72;5.13;;;28.70;43.70;;;;;;5060154;28;20036;-73
2023/06/17 08:16:26;;;;;;;5.03;4.53;;;28.70;43.60;;;;;;5061117;28;20036;-74
2023/06/17 08:18:53;;;;;;;5.07;4.60;;;28.70;43.60;;;;;;5060552;28;20449;-74
2023/06/17 08:21:18;;;;;;;4.90;4.50;;;28.70;43.60;;;;;;5057625;28;20106;-74
2023/06/17 08:23:45;;;;;;;5.38;4.90;;;28.70;43.60;;;;;;5058741;28;20025;-73
2023/06/17 08:26:11;;;;;;;5.38;4.88;;;28.70;43.60;;;;;;5058589;28;20037;-74
2023/06/17 08:28:38;;;;;;;5.65;4.68;;;28.70;43.30;;;;;;5062372;28;20461;-73
2023/06/17 08:31:04;;;;;;;5.32;4.93;;;28.70;43.20;;;;;;5058307;28;20033;-73
2023/06/17 08:33:30;;;;;;;6.95;4.70;;;28.60;43.20;;;;;;5059711;28;20025;-73
2023/06/17 08:35:56;;;;;;;4.90;4.50;;;28.60;43.10;;;;;;5057703;28;20029;-74
2023/06/17 08:38:22;;;;;;;4.68;4.28;;;28.60;43.10;;;;;;5059031;28;20384;-74
2023/06/17 08:40:48;;;;;;;5.18;4.68;;;28.50;43.00;;;;;;5058648;28;20040;-74
2023/06/17 08:43:19;;;;;;;4.82;4.43;;;28.50;42.90;;;;;;5060985;28;20676;-72
2023/06/17 08:45:51;;;;;;;5.28;4.78;;;28.50;42.90;;;;;;5058470;28;20040;-73
2023/06/17 08:48:18;;;;;;;4.75;4.35;;;28.50;42.90;;;;;;5059054;28;20253;-72
2023/06/17 08:50:47;;;;;;;5.13;4.68;;;28.50;42.80;;;;;;5060636;28;20033;-74
2023/06/17 08:53:14;;;;;;;4.80;4.32;;;28.50;42.80;;;;;;5058026;28;20038;-74
2023/06/17 08:55:40;;;;;;;4.97;4.47;;;28.50;42.80;;;;;;5057404;28;20533;-74
2023/06/17 08:58:08;;;;;;;4.47;4.07;;;28.40;42.70;;;;;;5061507;28;20037;-74
2023/06/17 09:00:35;;;;;;;5.05;4.55;;;28.40;42.70;;;;;;5060180;28;20032;-72
2023/06/17 09:03:03;;;;;;;5.05;4.55;;;28.50;42.80;;;;;;5058609;28;20028;-72
2023/06/17 09:05:29;;;;;;;4.38;3.92;;;28.50;42.70;;;;;;5060548;28;20067;-74
2023/06/17 09:07:55;;;;;;;4.57;4.20;;;28.50;42.70;;;;;;5058897;28;20040;-74
2023/06/17 09:10:21;;;;;;;4.70;4.28;;;28.50;42.60;;;;;;5058907;28;20098;-74
2023/06/17 09:12:47;;;;;;;4.70;4.30;;;28.50;42.60;;;;;;5063394;28;20060;-74
2023/06/17 09:15:17;;;;;;;4.65;4.25;;;28.50;42.50;;;;;;5063671;28;20403;-74
2023/06/17 09:17:45;;;;;;;4.80;4.40;;;28.40;42.50;;;;;;5064085;28;20028;-74
2023/06/17 09:20:15;;;;;;;4.60;4.20;;;28.40;42.50;;;;;;5064096;28;20063;-75
2023/06/17 09:22:43;;;;;;;5.03;4.63;;;28.40;42.50;;;;;;5061564;28;20036;-74
2023/06/17 09:25:14;;;;;;;5.05;4.65;;;28.30;42.50;;;;;;5061820;28;20515;-73
2023/06/17 09:27:50;;;;;;;4.55;4.15;;;28.30;42.50;;;;;;5062152;28;20044;-73
2023/06/17 09:30:17;;;;;;;6.40;4.80;;;28.30;42.50;;;;;;5064834;28;20784;-73
2023/06/17 09:32:44;;;;;;;4.75;4.35;;;28.30;42.50;;;;;;5061845;28;20384;-72
2023/06/17 09:35:17;;;;;;;5.80;4.70;;;28.30;42.60;;;;;;5062971;28;20033;-72
2023/06/17 09:37:48;;;;;;;4.60;4.07;;;28.30;42.30;;;;;;5062405;28;20035;-73
2023/06/17 09:40:14;;;;;;;6.13;4.43;;;28.30;42.40;;;;;;5061927;28;20045;-73
2023/06/17 09:42:44;;;;;;;4.53;4.07;;;28.30;42.30;;;;;;5062910;28;20083;-72
2023/06/17 09:45:12;;;;;;;5.10;4.65;;;28.30;42.30;;;;;;5064267;28;20514;-72
2023/06/17 09:47:39;;;;;;;4.85;4.45;;;28.30;42.30;;;;;;5063763;28;20033;-72
2023/06/17 09:50:08;;;;;;;5.32;4.82;;;28.30;42.20;;;;;;5061532;28;20561;-72
2023/06/17 09:52:37;;;;;;;4.97;4.50;;;28.30;42.10;;;;;;5061930;28;20571;-73
2023/06/17 09:55:04;;;;;;;4.97;4.50;;;28.30;41.80;;;;;;5078044;28;20128;-74
2023/06/17 09:57:31;;;;;;;5.38;4.70;;;28.30;41.70;;;;;;5061659;28;20111;-74
2023/06/17 10:00:14;;;;;;;5.05;4.55;;;28.30;41.70;;;;;;5059977;28;20024;-74
2023/06/17 10:02:40;;;;;;;4.75;4.38;;;28.30;41.70;;;;;;5063041;28;20527;-72
2023/06/17 10:05:12;;;;;;;5.63;5.05;;;28.30;41.80;;;;;;5065130;28;20029;-72
2023/06/17 10:07:41;;;;;;;5.43;4.80;;;28.20;41.80;;;;;;5063989;28;20039;-72
2023/06/17 10:10:10;;;;;;;5.63;4.85;;;28.10;41.70;;;;;;5061526;28;20049;-74
2023/06/17 10:12:38;;;;;;;5.28;4.80;;;28.20;41.80;;;;;;5061388;28;20033;-73
2023/06/17 10:15:05;;;;;;;5.43;4.93;;;28.10;41.80;;;;;;5060863;28;20025;-74
2023/06/17 10:17:33;;;;;;;5.00;4.50;;;28.10;41.90;;;;;;5063304;28;20035;-74
2023/06/17 10:20:05;;;;;;;5.55;5.00;;;28.10;41.90;;;;;;5059613;28;20538;-73
2023/06/17 10:22:34;;;;;;;5.13;4.63;;;28.10;42.00;;;;;;5060985;28;20166;-73
2023/06/17 10:25:00;;;;;;;5.20;4.70;;;28.10;42.00;;;;;;5061055;28;20128;-74
2023/06/17 10:27:26;;;;;;;5.18;4.78;;;28.10;42.10;;;;;;5064120;28;20610;-73
2023/06/17 10:29:56;;;;;;;5.95;5.03;;;28.10;42.20;;;;;;5062495;28;20111;-73
2023/06/17 10:32:24;;;;;;;4.82;4.40;;;28.10;42.20;;;;;;5060724;28;20507;-73
2023/06/17 10:35:05;;;;;;;5.00;4.60;;;28.00;42.20;;;;;;5059745;28;20024;-73
2023/06/17 10:37:37;;;;;;;5.78;5.03;;;28.00;42.20;;;;;;5060259;28;20029;-74
2023/06/17 10:40:20;;;;;;;5.80;5.20;;;28.00;42.20;;;;;;5060983;28;20509;-73
2023/06/17 10:43:16;;;;;;;5.55;4.95;;;28.00;42.10;;;;;;5063103;28;20048;-73
2023/06/17 10:45:48;;;;;;;6.38;5.22;;;28.00;42.10;;;;;;5061453;28;20424;-73
2023/06/17 10:48:27;;;;;;;5.57;5.07;;;28.00;42.10;;;;;;5061767;28;20047;-74
2023/06/17 10:51:07;;;;;;;5.60;5.07;;;28.00;42.10;;;;;;5061012;28;20590;-73
2023/06/17 10:53:37;;;;;;;5.57;5.07;;;28.00;41.90;;;;;;5061350;28;20028;-72
2023/06/17 10:56:06;;;;;;;5.57;5.07;;;28.10;41.90;;;;;;5061794;28;20071;-74
2023/06/17 10:58:36;;;;;;;5.65;5.13;;;28.00;41.90;;;;;;5059338;28;20056;-74
2023/06/17 11:01:02;;;;;;;7.28;5.20;;;28.00;41.60;;;;;;5059879;28;20442;-74
2023/06/17 11:03:28;;;;;;;5.70;5.15;;;28.00;41.80;;;;;;5062200;28;20040;-74
2023/06/17 11:05:59;;;;;;;5.65;5.05;;;28.00;41.90;;;;;;5059930;28;20074;-74
2023/06/17 11:08:25;;;;;;;5.75;5.22;;;28.00;41.80;;;;;;5060899;28;20106;-73
2023/06/17 11:10:51;;;;;;;5.70;5.20;;;27.90;41.60;;;;;;5061958;28;20562;-74
2023/06/17 11:13:23;;;;;;;5.78;5.30;;;28.00;41.60;;;;;;5041908;28;20637;-74
2023/06/17 11:15:55;;;;;;;6.30;5.70;;;27.90;41.80;;;;;;5062211;28;20511;-74
2023/06/17 11:18:21;;;;;;;8.60;5.72;;;28.00;41.70;;;;;;5059882;28;20044;-73
2023/06/17 11:20:47;;;;;;;6.00;5.40;;;28.00;41.60;;;;;;5062260;28;20111;-73
2023/06/17 11:23:13;;;;;;;6.72;6.03;;;28.00;41.60;;;;;;5063878;28;20528;-73
2023/06/17 11:25:40;;;;;;;5.55;5.05;;;28.00;41.70;;;;;;5058993;28;20033;-72
2023/06/17 11:28:06;;;;;;;5.95;5.35;;;28.00;41.60;;;;;;5061059;28;20039;-72
2023/06/17 11:30:32;;;;;;;5.50;5.00;;;28.00;41.80;;;;;;5059490;28;20033;-73
2023/06/17 11:32:58;;;;;;;5.53;5.03;;;27.90;41.70;;;;;;5061240;28;20056;-73
2023/06/17 11:35:25;;;;;;;6.28;5.68;;;27.90;41.70;;;;;;5062292;28;20027;-72
2023/06/17 11:37:52;;;;;;;6.03;5.53;;;27.90;41.80;;;;;;5061061;28;20444;-73
2023/06/17 11:40:18;;;;;;;6.53;5.85;;;27.90;41.90;;;;;;5059540;28;20094;-73
2023/06/17 11:42:46;;;;;;;6.28;5.65;;;27.90;41.70;;;;;;5059773;28;20120;-73
2023/06/17 11:45:13;;;;;;;6.53;5.93;;;27.90;41.80;;;;;;5058721;28;20059;-74
2023/06/17 11:47:39;;;;;;;7.35;6.07;;;27.90;41.60;;;;;;5061038;28;20041;-73
2023/06/17 11:50:06;;;;;;;6.38;5.82;;;27.90;41.50;;;;;;5059502;28;20444;-73
2023/06/17 11:52:36;;;;;;;7.57;6.18;;;27.90;41.60;;;;;;5063075;28;20032;-74
2023/06/17 11:55:02;;;;;;;7.32;6.32;;;27.90;41.50;;;;;;5059784;28;20055;-74
2023/06/17 11:57:29;;;;;;;7.53;6.75;;;27.90;41.40;;;;;;5061939;28;20035;-73
2023/06/17 12:00:04;;;;;;;8.40;7.05;;;27.90;40.40;;;;;;5059415;28;20029;-73
2023/06/17 12:02:38;;;;;;;9.13;6.90;;;27.90;40.70;;;;;;5060892;28;20483;-72
2023/06/17 12:05:05;;;;;;;7.35;6.65;;;27.90;41.00;;;;;;5058535;28;20039;-73
2023/06/17 12:07:41;;;;;;;8.55;7.22;;;27.90;41.00;;;;;;5060043;28;20032;-73
2023/06/17 12:10:07;;;;;;;8.68;7.45;;;27.90;40.00;;;;;;5058785;28;20060;-73
2023/06/17 12:12:39;;;;;;;8.23;7.30;;;27.90;40.50;;;;;;5059440;28;20064;-73
2023/06/17 12:15:07;;;;;;;8.55;7.60;;;27.90;40.40;;;;;;5060151;28;20459;-74
2023/06/17 12:17:38;;;;;;;8.50;7.45;;;27.90;40.70;;;;;;5059323;28;20491;-72
2023/06/17 12:20:05;;;;;;;7.95;7.20;;;27.90;40.60;;;;;;5059499;28;20041;-74
2023/06/17 12:22:31;;;;;;;8.40;7.60;;;27.90;40.50;;;;;;5058925;28;20032;-73
2023/06/17 12:24:58;;;;;;;8.38;7.45;;;27.90;40.60;;;;;;5059325;28;20047;-74
2023/06/17 12:27:29;;;;;;;8.40;7.60;;;27.80;40.70;;;;;;5059309;28;20070;-72
2023/06/17 12:29:56;;;;;;;9.02;7.88;;;27.80;40.70;;;;;;5061002;28;20044;-73
2023/06/17 12:32:22;;;;;;;10.23;7.97;;;27.80;40.70;;;;;;5058342;28;20021;-73
2023/06/17 12:34:48;;;;;;;8.85;7.90;;;27.80;40.70;;;;;;5059613;28;20047;-74
2023/06/17 12:37:15;;;;;;;9.20;8.02;;;27.80;40.10;;;;;;5059685;28;20047;-74
2023/06/17 12:39:41;;;;;;;9.07;7.63;;;27.80;40.50;;;;;;5058594;28;20032;-73
2023/06/17 12:42:07;;;;;;;10.45;8.40;;;27.80;40.90;;;;;;5061398;28;20024;-74
2023/06/17 12:44:34;;;;;;;8.40;7.50;;;27.80;40.80;;;;;;5058857;28;20025;-74
2023/06/17 12:47:00;;;;;;;10.35;8.38;;;27.70;40.90;;;;;;5057218;28;20656;-75